Strona główna
METAR-TAF:

METAR-TAF

Lotnisko :

Port lotniczy Kair

Kair, Egipt

Szerokość geograficzna: 30-08N, Długość geograficzna: 031-24E, wysokość: 64 m

Aktualna obserwacja pogody

Raport powstał 19 minut temu, godzina 02:00 UTC
Wiatr 6 kt od północno-północny wschód
Temperatura 12°C
Wilgotność 71%
Ciśnienie 1019 hPa
Widzialność 10 km lub więcej
Brak chmur poniżej 1500 m i brak chmur cumulonimbus

METAR: HECA 130200Z 03006KT CAVOK 12/07 Q1019 NOSIG

czas: 04:19 (02:19 UTC)

Prognoza

Raport powstał 3 godziny i 19 minut temu, godzina 23:00 UTC
Prognoza ważna od 13 godzina 00 UTC do 14 godzina 06 UTC
Wiatr 10 kt od północny wschód
Widzialność 10 km lub więcej
Brak chmur poniżej 1500 m i brak chmur cumulonimbus
Przejściowo
od 13 godzina 02 UTC do 13 godzina 07 UTC
Wiatr 7 kt od wschodnio-północny wschód
Widzialność: 3000 m
zmętnienie

TAF: HECA 122300Z 1300/1406 04010KT CAVOK TEMPO 1302/1307 07007KT 3000 HZ NSC

Obserwacja i prognoza pogody dla ponad 4000 lotnisk (raport METAR i TAF).

Dostępne stacje oznaczono żółtymi i czerwonymi punktami na mapie.

Najedź kursorem aby zobaczyć nazwę stacji.

Kliknij aby zobaczyć obserwacje i prognozy pogody.

Aby zmienić mapę: kliknij na zielony przycisk z czarnym krzyżykiem, aby powiększyć; na zielony przycisk z myślnikiem, aby pomniejszyć; na zielone strzałki, aby przejść do map sąsiednich.


METAR-TAF: